sensor_id;sensor_type;location;lat;lon;timestamp;P1;durP1;ratioP1;P2;durP2;ratioP2
6205;SDS011;3136;48.788;9.772;2022-10-16T00:00:56;19.80;;;8.40;;
6205;SDS011;3136;48.788;9.772;2022-10-16T00:03:21;12.83;;;7.97;;
6205;SDS011;3136;48.788;9.772;2022-10-16T00:05:47;83.57;;;11.70;;
6205;SDS011;3136;48.788;9.772;2022-10-16T00:08:13;34.47;;;10.97;;
6205;SDS011;3136;48.788;9.772;2022-10-16T00:10:39;16.60;;;8.10;;
6205;SDS011;3136;48.788;9.772;2022-10-16T00:13:05;15.93;;;8.27;;
6205;SDS011;3136;48.788;9.772;2022-10-16T00:15:33;15.93;;;7.77;;
6205;SDS011;3136;48.788;9.772;2022-10-16T00:18:03;20.10;;;8.30;;
6205;SDS011;3136;48.788;9.772;2022-10-16T00:20:30;18.00;;;8.20;;
6205;SDS011;3136;48.788;9.772;2022-10-16T00:22:59;18.23;;;8.30;;
6205;SDS011;3136;48.788;9.772;2022-10-16T00:25:24;17.93;;;7.77;;
6205;SDS011;3136;48.788;9.772;2022-10-16T00:27:50;12.70;;;7.40;;
6205;SDS011;3136;48.788;9.772;2022-10-16T00:30:15;15.40;;;8.43;;
6205;SDS011;3136;48.788;9.772;2022-10-16T00:32:41;14.13;;;7.87;;
6205;SDS011;3136;48.788;9.772;2022-10-16T00:35:06;14.67;;;8.17;;
6205;SDS011;3136;48.788;9.772;2022-10-16T00:37:32;14.67;;;7.30;;
6205;SDS011;3136;48.788;9.772;2022-10-16T00:39:58;15.60;;;7.13;;
6205;SDS011;3136;48.788;9.772;2022-10-16T00:42:23;14.10;;;7.13;;
6205;SDS011;3136;48.788;9.772;2022-10-16T00:47:24;15.30;;;7.23;;
6205;SDS011;3136;48.788;9.772;2022-10-16T00:49:56;17.77;;;7.57;;
6205;SDS011;3136;48.788;9.772;2022-10-16T00:52:26;12.67;;;7.10;;
6205;SDS011;3136;48.788;9.772;2022-10-16T00:54:52;19.33;;;8.80;;
6205;SDS011;3136;48.788;9.772;2022-10-16T00:57:19;18.13;;;7.90;;
6205;SDS011;3136;48.788;9.772;2022-10-16T00:59:45;19.10;;;8.10;;
6205;SDS011;3136;48.788;9.772;2022-10-16T01:02:12;16.13;;;7.83;;
6205;SDS011;3136;48.788;9.772;2022-10-16T01:04:41;19.40;;;8.20;;
6205;SDS011;3136;48.788;9.772;2022-10-16T01:07:36;20.97;;;7.33;;
6205;SDS011;3136;48.788;9.772;2022-10-16T01:12:56;15.57;;;7.00;;
6205;SDS011;3136;48.788;9.772;2022-10-16T01:15:45;14.67;;;7.40;;
6205;SDS011;3136;48.788;9.772;2022-10-16T01:21:01;23.10;;;7.47;;
6205;SDS011;3136;48.788;9.772;2022-10-16T01:29:14;34.77;;;11.73;;
6205;SDS011;3136;48.788;9.772;2022-10-16T01:31:47;110.47;;;23.07;;
6205;SDS011;3136;48.788;9.772;2022-10-16T01:34:20;30.07;;;11.43;;
6205;SDS011;3136;48.788;9.772;2022-10-16T01:36:57;40.07;;;11.20;;
6205;SDS011;3136;48.788;9.772;2022-10-16T01:39:35;40.53;;;13.57;;
6205;SDS011;3136;48.788;9.772;2022-10-16T01:42:06;38.60;;;14.80;;
6205;SDS011;3136;48.788;9.772;2022-10-16T01:44:36;32.73;;;13.93;;
6205;SDS011;3136;48.788;9.772;2022-10-16T01:47:03;43.37;;;13.87;;
6205;SDS011;3136;48.788;9.772;2022-10-16T01:49:31;48.90;;;11.00;;
6205;SDS011;3136;48.788;9.772;2022-10-16T01:51:59;19.23;;;9.37;;
6205;SDS011;3136;48.788;9.772;2022-10-16T01:54:30;40.47;;;11.93;;
6205;SDS011;3136;48.788;9.772;2022-10-16T01:56:58;53.07;;;10.83;;
6205;SDS011;3136;48.788;9.772;2022-10-16T01:59:25;68.07;;;10.87;;
6205;SDS011;3136;48.788;9.772;2022-10-16T02:01:55;48.80;;;8.73;;
6205;SDS011;3136;48.788;9.772;2022-10-16T02:04:31;22.07;;;7.27;;
6205;SDS011;3136;48.788;9.772;2022-10-16T02:06:59;25.80;;;7.57;;
6205;SDS011;3136;48.788;9.772;2022-10-16T02:09:25;73.17;;;9.73;;
6205;SDS011;3136;48.788;9.772;2022-10-16T02:11:52;68.17;;;8.73;;
6205;SDS011;3136;48.788;9.772;2022-10-16T02:14:19;43.80;;;8.00;;
6205;SDS011;3136;48.788;9.772;2022-10-16T02:16:47;34.90;;;8.73;;
6205;SDS011;3136;48.788;9.772;2022-10-16T02:19:13;60.13;;;8.50;;
6205;SDS011;3136;48.788;9.772;2022-10-16T02:21:57;43.47;;;8.17;;
6205;SDS011;3136;48.788;9.772;2022-10-16T02:24:27;31.23;;;7.20;;
6205;SDS011;3136;48.788;9.772;2022-10-16T02:27:13;32.90;;;7.70;;
6205;SDS011;3136;48.788;9.772;2022-10-16T02:32:45;67.07;;;7.90;;
6205;SDS011;3136;48.788;9.772;2022-10-16T02:35:13;57.73;;;8.37;;
6205;SDS011;3136;48.788;9.772;2022-10-16T02:37:39;54.87;;;7.40;;
6205;SDS011;3136;48.788;9.772;2022-10-16T02:40:06;63.73;;;9.27;;
6205;SDS011;3136;48.788;9.772;2022-10-16T02:42:33;69.77;;;8.10;;
6205;SDS011;3136;48.788;9.772;2022-10-16T02:45:00;46.53;;;7.60;;
6205;SDS011;3136;48.788;9.772;2022-10-16T02:47:26;15.53;;;6.40;;
6205;SDS011;3136;48.788;9.772;2022-10-16T02:49:52;48.07;;;8.37;;
6205;SDS011;3136;48.788;9.772;2022-10-16T02:52:17;41.57;;;7.63;;
6205;SDS011;3136;48.788;9.772;2022-10-16T02:54:43;42.43;;;7.53;;
6205;SDS011;3136;48.788;9.772;2022-10-16T02:57:08;15.73;;;7.57;;
6205;SDS011;3136;48.788;9.772;2022-10-16T02:59:34;10.57;;;6.20;;
6205;SDS011;3136;48.788;9.772;2022-10-16T03:02:00;15.97;;;6.73;;
6205;SDS011;3136;48.788;9.772;2022-10-16T03:04:25;33.17;;;6.97;;
6205;SDS011;3136;48.788;9.772;2022-10-16T03:06:51;11.57;;;6.30;;
6205;SDS011;3136;48.788;9.772;2022-10-16T03:09:16;17.07;;;7.03;;
6205;SDS011;3136;48.788;9.772;2022-10-16T03:11:42;14.23;;;7.10;;
6205;SDS011;3136;48.788;9.772;2022-10-16T03:14:07;16.80;;;7.60;;
6205;SDS011;3136;48.788;9.772;2022-10-16T03:16:33;11.03;;;7.57;;
6205;SDS011;3136;48.788;9.772;2022-10-16T03:18:58;15.50;;;7.63;;
6205;SDS011;3136;48.788;9.772;2022-10-16T03:21:24;19.30;;;9.87;;
6205;SDS011;3136;48.788;9.772;2022-10-16T03:23:49;16.57;;;8.50;;
6205;SDS011;3136;48.788;9.772;2022-10-16T03:26:15;16.47;;;8.77;;
6205;SDS011;3136;48.788;9.772;2022-10-16T03:28:40;14.27;;;8.07;;
6205;SDS011;3136;48.788;9.772;2022-10-16T03:31:06;16.67;;;8.07;;
6205;SDS011;3136;48.788;9.772;2022-10-16T03:33:33;15.70;;;8.20;;
6205;SDS011;3136;48.788;9.772;2022-10-16T03:35:58;13.97;;;7.63;;
6205;SDS011;3136;48.788;9.772;2022-10-16T03:38:25;13.90;;;7.93;;
6205;SDS011;3136;48.788;9.772;2022-10-16T03:40:50;14.83;;;7.60;;
6205;SDS011;3136;48.788;9.772;2022-10-16T03:43:16;13.63;;;6.63;;
6205;SDS011;3136;48.788;9.772;2022-10-16T03:45:41;8.33;;;6.20;;
6205;SDS011;3136;48.788;9.772;2022-10-16T03:48:07;10.20;;;6.30;;
6205;SDS011;3136;48.788;9.772;2022-10-16T03:50:33;11.60;;;6.33;;
6205;SDS011;3136;48.788;9.772;2022-10-16T03:52:58;11.97;;;6.63;;
6205;SDS011;3136;48.788;9.772;2022-10-16T03:55:24;8.33;;;5.73;;
6205;SDS011;3136;48.788;9.772;2022-10-16T03:57:49;15.80;;;6.77;;
6205;SDS011;3136;48.788;9.772;2022-10-16T04:00:15;15.90;;;7.40;;
6205;SDS011;3136;48.788;9.772;2022-10-16T04:02:40;12.70;;;6.43;;
6205;SDS011;3136;48.788;9.772;2022-10-16T04:05:06;20.13;;;7.20;;
6205;SDS011;3136;48.788;9.772;2022-10-16T04:07:32;10.03;;;6.47;;
6205;SDS011;3136;48.788;9.772;2022-10-16T04:09:57;41.83;;;7.93;;
6205;SDS011;3136;48.788;9.772;2022-10-16T04:12:24;12.63;;;6.77;;
6205;SDS011;3136;48.788;9.772;2022-10-16T04:14:50;11.30;;;5.80;;
6205;SDS011;3136;48.788;9.772;2022-10-16T04:17:16;10.23;;;6.03;;
6205;SDS011;3136;48.788;9.772;2022-10-16T04:19:42;12.63;;;5.80;;
6205;SDS011;3136;48.788;9.772;2022-10-16T04:22:07;11.10;;;5.90;;
6205;SDS011;3136;48.788;9.772;2022-10-16T04:24:33;15.10;;;6.07;;
6205;SDS011;3136;48.788;9.772;2022-10-16T04:26:58;10.47;;;6.13;;
6205;SDS011;3136;48.788;9.772;2022-10-16T04:29:24;13.10;;;5.97;;
6205;SDS011;3136;48.788;9.772;2022-10-16T04:31:50;13.17;;;6.33;;
6205;SDS011;3136;48.788;9.772;2022-10-16T04:34:15;13.07;;;6.73;;
6205;SDS011;3136;48.788;9.772;2022-10-16T04:36:41;15.23;;;5.90;;
6205;SDS011;3136;48.788;9.772;2022-10-16T04:39:06;8.77;;;5.30;;
6205;SDS011;3136;48.788;9.772;2022-10-16T04:41:32;13.07;;;5.93;;
6205;SDS011;3136;48.788;9.772;2022-10-16T04:43:57;10.33;;;6.07;;
6205;SDS011;3136;48.788;9.772;2022-10-16T04:46:23;9.03;;;5.63;;
6205;SDS011;3136;48.788;9.772;2022-10-16T04:48:48;11.33;;;5.53;;
6205;SDS011;3136;48.788;9.772;2022-10-16T04:51:14;9.90;;;5.30;;
6205;SDS011;3136;48.788;9.772;2022-10-16T04:53:39;8.23;;;5.33;;
6205;SDS011;3136;48.788;9.772;2022-10-16T04:56:05;14.37;;;5.50;;
6205;SDS011;3136;48.788;9.772;2022-10-16T04:58:31;10.33;;;5.27;;
6205;SDS011;3136;48.788;9.772;2022-10-16T05:00:56;9.13;;;5.40;;
6205;SDS011;3136;48.788;9.772;2022-10-16T05:03:22;11.87;;;5.63;;
6205;SDS011;3136;48.788;9.772;2022-10-16T05:05:47;11.73;;;6.13;;
6205;SDS011;3136;48.788;9.772;2022-10-16T05:08:14;9.77;;;6.00;;
6205;SDS011;3136;48.788;9.772;2022-10-16T05:10:41;24.77;;;6.83;;
6205;SDS011;3136;48.788;9.772;2022-10-16T05:13:07;17.40;;;6.63;;
6205;SDS011;3136;48.788;9.772;2022-10-16T05:15:33;27.37;;;7.80;;
6205;SDS011;3136;48.788;9.772;2022-10-16T05:17:59;25.90;;;7.60;;
6205;SDS011;3136;48.788;9.772;2022-10-16T05:20:24;37.17;;;7.87;;
6205;SDS011;3136;48.788;9.772;2022-10-16T05:22:50;29.97;;;8.50;;
6205;SDS011;3136;48.788;9.772;2022-10-16T05:25:16;16.53;;;6.70;;
6205;SDS011;3136;48.788;9.772;2022-10-16T05:27:41;19.83;;;7.30;;
6205;SDS011;3136;48.788;9.772;2022-10-16T05:30:07;14.93;;;7.23;;
6205;SDS011;3136;48.788;9.772;2022-10-16T05:32:33;11.50;;;6.50;;
6205;SDS011;3136;48.788;9.772;2022-10-16T05:34:59;12.53;;;6.23;;
6205;SDS011;3136;48.788;9.772;2022-10-16T05:37:25;12.53;;;6.30;;
6205;SDS011;3136;48.788;9.772;2022-10-16T05:39:52;11.40;;;5.87;;
6205;SDS011;3136;48.788;9.772;2022-10-16T05:42:17;13.83;;;5.77;;
6205;SDS011;3136;48.788;9.772;2022-10-16T05:44:43;7.57;;;5.50;;
6205;SDS011;3136;48.788;9.772;2022-10-16T05:47:09;17.10;;;6.90;;
6205;SDS011;3136;48.788;9.772;2022-10-16T05:49:37;13.27;;;5.63;;
6205;SDS011;3136;48.788;9.772;2022-10-16T05:52:02;18.70;;;6.90;;
6205;SDS011;3136;48.788;9.772;2022-10-16T05:54:28;17.20;;;6.23;;
6205;SDS011;3136;48.788;9.772;2022-10-16T05:56:54;13.13;;;6.50;;
6205;SDS011;3136;48.788;9.772;2022-10-16T05:59:19;11.10;;;5.70;;
6205;SDS011;3136;48.788;9.772;2022-10-16T06:01:45;10.73;;;5.77;;
6205;SDS011;3136;48.788;9.772;2022-10-16T06:04:11;8.87;;;5.10;;
6205;SDS011;3136;48.788;9.772;2022-10-16T06:06:36;13.47;;;5.17;;
6205;SDS011;3136;48.788;9.772;2022-10-16T06:09:02;11.60;;;7.20;;
6205;SDS011;3136;48.788;9.772;2022-10-16T06:11:30;18.97;;;11.10;;
6205;SDS011;3136;48.788;9.772;2022-10-16T06:13:57;15.07;;;8.63;;
6205;SDS011;3136;48.788;9.772;2022-10-16T06:16:26;10.13;;;5.53;;
6205;SDS011;3136;48.788;9.772;2022-10-16T06:18:52;8.60;;;5.27;;
6205;SDS011;3136;48.788;9.772;2022-10-16T06:21:20;11.03;;;5.17;;
6205;SDS011;3136;48.788;9.772;2022-10-16T06:23:47;10.07;;;6.23;;
6205;SDS011;3136;48.788;9.772;2022-10-16T06:26:13;14.77;;;11.13;;
6205;SDS011;3136;48.788;9.772;2022-10-16T06:28:41;17.07;;;10.50;;
6205;SDS011;3136;48.788;9.772;2022-10-16T06:31:08;18.33;;;12.20;;
6205;SDS011;3136;48.788;9.772;2022-10-16T06:33:35;14.87;;;10.70;;
6205;SDS011;3136;48.788;9.772;2022-10-16T06:36:19;13.00;;;8.87;;
6205;SDS011;3136;48.788;9.772;2022-10-16T06:38:45;15.70;;;9.20;;
6205;SDS011;3136;48.788;9.772;2022-10-16T06:41:12;12.07;;;8.73;;
6205;SDS011;3136;48.788;9.772;2022-10-16T06:43:40;16.00;;;8.77;;
6205;SDS011;3136;48.788;9.772;2022-10-16T06:46:06;15.63;;;9.23;;
6205;SDS011;3136;48.788;9.772;2022-10-16T06:48:34;15.30;;;8.60;;
6205;SDS011;3136;48.788;9.772;2022-10-16T06:53:26;19.37;;;11.40;;
6205;SDS011;3136;48.788;9.772;2022-10-16T06:55:53;13.47;;;10.50;;
6205;SDS011;3136;48.788;9.772;2022-10-16T06:58:19;15.47;;;11.90;;
6205;SDS011;3136;48.788;9.772;2022-10-16T07:00:45;11.17;;;7.27;;
6205;SDS011;3136;48.788;9.772;2022-10-16T07:03:10;10.23;;;7.70;;
6205;SDS011;3136;48.788;9.772;2022-10-16T07:05:40;8.57;;;5.60;;
6205;SDS011;3136;48.788;9.772;2022-10-16T07:08:07;8.50;;;4.87;;
6205;SDS011;3136;48.788;9.772;2022-10-16T07:10:33;10.90;;;4.63;;
6205;SDS011;3136;48.788;9.772;2022-10-16T07:12:59;7.33;;;4.80;;
6205;SDS011;3136;48.788;9.772;2022-10-16T07:15:24;5.87;;;4.30;;
6205;SDS011;3136;48.788;9.772;2022-10-16T07:17:51;10.27;;;4.80;;
6205;SDS011;3136;48.788;9.772;2022-10-16T07:20:16;6.00;;;4.50;;
6205;SDS011;3136;48.788;9.772;2022-10-16T07:22:42;9.30;;;4.60;;
6205;SDS011;3136;48.788;9.772;2022-10-16T07:25:08;9.97;;;4.27;;
6205;SDS011;3136;48.788;9.772;2022-10-16T07:27:33;5.77;;;4.20;;
6205;SDS011;3136;48.788;9.772;2022-10-16T07:29:59;8.87;;;4.00;;
6205;SDS011;3136;48.788;9.772;2022-10-16T07:32:25;4.43;;;3.43;;
6205;SDS011;3136;48.788;9.772;2022-10-16T07:34:52;4.60;;;3.43;;
6205;SDS011;3136;48.788;9.772;2022-10-16T07:37:18;7.90;;;3.77;;
6205;SDS011;3136;48.788;9.772;2022-10-16T07:39:43;11.70;;;4.00;;
6205;SDS011;3136;48.788;9.772;2022-10-16T07:42:09;7.90;;;3.80;;
6205;SDS011;3136;48.788;9.772;2022-10-16T07:44:34;5.10;;;3.20;;
6205;SDS011;3136;48.788;9.772;2022-10-16T07:47:00;7.87;;;3.20;;
6205;SDS011;3136;48.788;9.772;2022-10-16T07:49:25;6.57;;;3.50;;
6205;SDS011;3136;48.788;9.772;2022-10-16T07:51:51;6.57;;;3.40;;
6205;SDS011;3136;48.788;9.772;2022-10-16T07:54:16;6.40;;;3.20;;
6205;SDS011;3136;48.788;9.772;2022-10-16T07:56:42;6.27;;;3.57;;
6205;SDS011;3136;48.788;9.772;2022-10-16T07:59:08;4.50;;;3.20;;
6205;SDS011;3136;48.788;9.772;2022-10-16T08:01:33;5.17;;;3.60;;
6205;SDS011;3136;48.788;9.772;2022-10-16T08:03:59;3.37;;;3.00;;
6205;SDS011;3136;48.788;9.772;2022-10-16T08:06:24;6.33;;;2.90;;
6205;SDS011;3136;48.788;9.772;2022-10-16T08:08:50;3.40;;;3.00;;
6205;SDS011;3136;48.788;9.772;2022-10-16T08:11:16;5.53;;;2.50;;
6205;SDS011;3136;48.788;9.772;2022-10-16T08:13:41;6.93;;;2.80;;
6205;SDS011;3136;48.788;9.772;2022-10-16T08:16:07;8.77;;;2.63;;
6205;SDS011;3136;48.788;9.772;2022-10-16T08:18:35;4.90;;;3.10;;
6205;SDS011;3136;48.788;9.772;2022-10-16T08:21:01;5.63;;;3.00;;
6205;SDS011;3136;48.788;9.772;2022-10-16T08:23:27;3.93;;;2.67;;
6205;SDS011;3136;48.788;9.772;2022-10-16T08:25:53;6.63;;;2.70;;
6205;SDS011;3136;48.788;9.772;2022-10-16T08:28:19;7.53;;;3.00;;
6205;SDS011;3136;48.788;9.772;2022-10-16T08:30:45;3.03;;;2.40;;
6205;SDS011;3136;48.788;9.772;2022-10-16T08:33:11;4.57;;;2.80;;
6205;SDS011;3136;48.788;9.772;2022-10-16T08:35:36;7.50;;;3.00;;
6205;SDS011;3136;48.788;9.772;2022-10-16T08:38:03;4.20;;;3.03;;
6205;SDS011;3136;48.788;9.772;2022-10-16T08:40:29;3.70;;;2.60;;
6205;SDS011;3136;48.788;9.772;2022-10-16T08:43:01;6.63;;;2.60;;
6205;SDS011;3136;48.788;9.772;2022-10-16T08:51:12;5.63;;;2.70;;
6205;SDS011;3136;48.788;9.772;2022-10-16T08:53:50;6.70;;;3.40;;
6205;SDS011;3136;48.788;9.772;2022-10-16T08:56:22;7.67;;;3.63;;
6205;SDS011;3136;48.788;9.772;2022-10-16T08:58:49;5.77;;;3.33;;
6205;SDS011;3136;48.788;9.772;2022-10-16T09:01:17;5.47;;;3.30;;
6205;SDS011;3136;48.788;9.772;2022-10-16T09:03:48;6.33;;;3.00;;
6205;SDS011;3136;48.788;9.772;2022-10-16T09:06:26;4.27;;;2.60;;
6205;SDS011;3136;48.788;9.772;2022-10-16T09:14:50;4.00;;;2.83;;
6205;SDS011;3136;48.788;9.772;2022-10-16T09:25:41;5.87;;;2.50;;
6205;SDS011;3136;48.788;9.772;2022-10-16T09:28:09;5.17;;;2.60;;
6205;SDS011;3136;48.788;9.772;2022-10-16T09:30:35;4.53;;;2.90;;
6205;SDS011;3136;48.788;9.772;2022-10-16T09:33:02;7.53;;;3.00;;
6205;SDS011;3136;48.788;9.772;2022-10-16T09:35:36;6.07;;;2.50;;
6205;SDS011;3136;48.788;9.772;2022-10-16T09:38:04;3.70;;;2.53;;
6205;SDS011;3136;48.788;9.772;2022-10-16T09:40:35;4.47;;;2.93;;
6205;SDS011;3136;48.788;9.772;2022-10-16T09:43:25;4.17;;;2.87;;
6205;SDS011;3136;48.788;9.772;2022-10-16T09:48:21;2.53;;;2.33;;
6205;SDS011;3136;48.788;9.772;2022-10-16T09:51:00;4.63;;;2.37;;
6205;SDS011;3136;48.788;9.772;2022-10-16T09:53:37;5.97;;;2.17;;
6205;SDS011;3136;48.788;9.772;2022-10-16T09:56:05;3.77;;;2.30;;
6205;SDS011;3136;48.788;9.772;2022-10-16T09:58:31;7.53;;;3.37;;
6205;SDS011;3136;48.788;9.772;2022-10-16T10:00:58;5.93;;;2.50;;
6205;SDS011;3136;48.788;9.772;2022-10-16T10:03:30;4.13;;;2.60;;
6205;SDS011;3136;48.788;9.772;2022-10-16T10:06:02;6.03;;;2.47;;
6205;SDS011;3136;48.788;9.772;2022-10-16T10:08:39;7.80;;;2.50;;
6205;SDS011;3136;48.788;9.772;2022-10-16T10:11:05;3.70;;;2.20;;
6205;SDS011;3136;48.788;9.772;2022-10-16T10:13:30;6.80;;;2.47;;
6205;SDS011;3136;48.788;9.772;2022-10-16T10:15:56;5.13;;;2.27;;
6205;SDS011;3136;48.788;9.772;2022-10-16T10:18:22;2.90;;;2.20;;
6205;SDS011;3136;48.788;9.772;2022-10-16T10:21:02;2.80;;;2.07;;
6205;SDS011;3136;48.788;9.772;2022-10-16T10:23:30;3.53;;;2.23;;
6205;SDS011;3136;48.788;9.772;2022-10-16T10:26:00;4.20;;;2.10;;
6205;SDS011;3136;48.788;9.772;2022-10-16T10:28:44;8.57;;;2.30;;
6205;SDS011;3136;48.788;9.772;2022-10-16T10:31:29;5.73;;;2.53;;
6205;SDS011;3136;48.788;9.772;2022-10-16T10:36:44;3.90;;;1.93;;
6205;SDS011;3136;48.788;9.772;2022-10-16T10:44:26;7.43;;;2.40;;
6205;SDS011;3136;48.788;9.772;2022-10-16T10:49:46;6.00;;;2.50;;
6205;SDS011;3136;48.788;9.772;2022-10-16T10:52:39;3.27;;;1.80;;
6205;SDS011;3136;48.788;9.772;2022-10-16T10:55:10;3.60;;;1.70;;
6205;SDS011;3136;48.788;9.772;2022-10-16T11:00:42;2.83;;;2.00;;
6205;SDS011;3136;48.788;9.772;2022-10-16T11:06:33;5.70;;;1.90;;
6205;SDS011;3136;48.788;9.772;2022-10-16T11:09:11;3.37;;;1.43;;
6205;SDS011;3136;48.788;9.772;2022-10-16T11:12:06;4.67;;;1.30;;
6205;SDS011;3136;48.788;9.772;2022-10-16T11:14:45;3.40;;;1.40;;
6205;SDS011;3136;48.788;9.772;2022-10-16T11:17:19;6.93;;;1.80;;
6205;SDS011;3136;48.788;9.772;2022-10-16T11:20:25;3.78;;;1.40;;
6205;SDS011;3136;48.788;9.772;2022-10-16T11:22:54;4.72;;;1.70;;
6205;SDS011;3136;48.788;9.772;2022-10-16T11:25:29;2.13;;;1.30;;
6205;SDS011;3136;48.788;9.772;2022-10-16T11:30:28;2.17;;;1.02;;
6205;SDS011;3136;48.788;9.772;2022-10-16T11:33:24;1.73;;;1.17;;
6205;SDS011;3136;48.788;9.772;2022-10-16T11:41:44;3.67;;;1.20;;
6205;SDS011;3136;48.788;9.772;2022-10-16T11:44:18;2.72;;;1.88;;
6205;SDS011;3136;48.788;9.772;2022-10-16T11:49:32;2.50;;;1.15;;
6205;SDS011;3136;48.788;9.772;2022-10-16T11:52:19;2.28;;;1.15;;
6205;SDS011;3136;48.788;9.772;2022-10-16T11:57:52;10.60;;;1.23;;
6205;SDS011;3136;48.788;9.772;2022-10-16T12:00:23;1.10;;;1.05;;
6205;SDS011;3136;48.788;9.772;2022-10-16T12:02:58;5.20;;;1.50;;
6205;SDS011;3136;48.788;9.772;2022-10-16T12:08:20;3.60;;;1.23;;
6205;SDS011;3136;48.788;9.772;2022-10-16T12:10:47;1.50;;;1.10;;
6205;SDS011;3136;48.788;9.772;2022-10-16T12:19:02;2.13;;;1.10;;
6205;SDS011;3136;48.788;9.772;2022-10-16T12:21:39;3.22;;;1.20;;
6205;SDS011;3136;48.788;9.772;2022-10-16T12:24:05;5.03;;;1.30;;
6205;SDS011;3136;48.788;9.772;2022-10-16T12:26:32;4.20;;;1.67;;
6205;SDS011;3136;48.788;9.772;2022-10-16T12:29:14;1.02;;;0.95;;
6205;SDS011;3136;48.788;9.772;2022-10-16T12:31:48;2.05;;;0.93;;
6205;SDS011;3136;48.788;9.772;2022-10-16T12:34:22;4.43;;;1.02;;
6205;SDS011;3136;48.788;9.772;2022-10-16T12:36:52;1.98;;;1.10;;
6205;SDS011;3136;48.788;9.772;2022-10-16T12:39:22;2.92;;;1.27;;
6205;SDS011;3136;48.788;9.772;2022-10-16T12:42:00;3.83;;;1.20;;
6205;SDS011;3136;48.788;9.772;2022-10-16T12:44:31;1.77;;;1.05;;
6205;SDS011;3136;48.788;9.772;2022-10-16T12:46:58;2.80;;;1.20;;
6205;SDS011;3136;48.788;9.772;2022-10-16T12:51:53;1.90;;;1.10;;
6205;SDS011;3136;48.788;9.772;2022-10-16T13:00:23;1.20;;;1.10;;
6205;SDS011;3136;48.788;9.772;2022-10-16T13:24:18;5.10;;;1.00;;
6205;SDS011;3136;48.788;9.772;2022-10-16T13:27:07;4.03;;;1.10;;
6205;SDS011;3136;48.788;9.772;2022-10-16T13:29:52;1.35;;;1.08;;
6205;SDS011;3136;48.788;9.772;2022-10-16T13:32:24;2.35;;;1.02;;
6205;SDS011;3136;48.788;9.772;2022-10-16T13:34:51;4.25;;;1.23;;
6205;SDS011;3136;48.788;9.772;2022-10-16T13:37:19;10.35;;;1.40;;
6205;SDS011;3136;48.788;9.772;2022-10-16T13:39:47;1.97;;;1.10;;
6205;SDS011;3136;48.788;9.772;2022-10-16T13:42:26;4.77;;;1.30;;
6205;SDS011;3136;48.788;9.772;2022-10-16T13:44:53;5.13;;;1.20;;
6205;SDS011;3136;48.788;9.772;2022-10-16T13:47:22;2.33;;;1.10;;
6205;SDS011;3136;48.788;9.772;2022-10-16T13:49:59;3.47;;;1.20;;
6205;SDS011;3136;48.788;9.772;2022-10-16T13:52:24;8.93;;;1.30;;
6205;SDS011;3136;48.788;9.772;2022-10-16T13:54:50;3.07;;;1.20;;
6205;SDS011;3136;48.788;9.772;2022-10-16T13:57:16;2.27;;;1.57;;
6205;SDS011;3136;48.788;9.772;2022-10-16T13:59:42;2.00;;;1.00;;
6205;SDS011;3136;48.788;9.772;2022-10-16T14:02:55;7.38;;;1.38;;
6205;SDS011;3136;48.788;9.772;2022-10-16T14:04:53;4.68;;;1.20;;
6205;SDS011;3136;48.788;9.772;2022-10-16T14:07:24;2.38;;;1.30;;
6205;SDS011;3136;48.788;9.772;2022-10-16T14:09:54;3.55;;;1.38;;
6205;SDS011;3136;48.788;9.772;2022-10-16T14:12:21;8.90;;;1.80;;
6205;SDS011;3136;48.788;9.772;2022-10-16T14:14:51;5.35;;;1.45;;
6205;SDS011;3136;48.788;9.772;2022-10-16T14:17:23;4.85;;;1.55;;
6205;SDS011;3136;48.788;9.772;2022-10-16T14:19:52;4.28;;;1.70;;
6205;SDS011;3136;48.788;9.772;2022-10-16T14:22:39;3.63;;;1.30;;
6205;SDS011;3136;48.788;9.772;2022-10-16T14:27:44;4.03;;;1.50;;
6205;SDS011;3136;48.788;9.772;2022-10-16T14:32:53;10.13;;;1.30;;
6205;SDS011;3136;48.788;9.772;2022-10-16T14:37:53;4.77;;;1.60;;
6205;SDS011;3136;48.788;9.772;2022-10-16T14:40:20;3.07;;;1.43;;
6205;SDS011;3136;48.788;9.772;2022-10-16T14:42:49;1.67;;;1.33;;
6205;SDS011;3136;48.788;9.772;2022-10-16T14:45:18;6.87;;;1.57;;
6205;SDS011;3136;48.788;9.772;2022-10-16T14:47:49;6.93;;;1.47;;
6205;SDS011;3136;48.788;9.772;2022-10-16T14:50:18;2.87;;;1.27;;
6205;SDS011;3136;48.788;9.772;2022-10-16T14:52:44;2.83;;;1.30;;
6205;SDS011;3136;48.788;9.772;2022-10-16T14:55:10;5.40;;;1.63;;
6205;SDS011;3136;48.788;9.772;2022-10-16T14:57:36;3.63;;;1.43;;
6205;SDS011;3136;48.788;9.772;2022-10-16T15:00:04;4.80;;;1.60;;
6205;SDS011;3136;48.788;9.772;2022-10-16T15:02:41;6.80;;;1.50;;
6205;SDS011;3136;48.788;9.772;2022-10-16T15:05:13;6.37;;;1.67;;
6205;SDS011;3136;48.788;9.772;2022-10-16T15:07:47;4.70;;;1.30;;
6205;SDS011;3136;48.788;9.772;2022-10-16T15:10:14;9.13;;;1.53;;
6205;SDS011;3136;48.788;9.772;2022-10-16T15:12:40;5.10;;;1.60;;
6205;SDS011;3136;48.788;9.772;2022-10-16T15:17:47;3.70;;;1.50;;
6205;SDS011;3136;48.788;9.772;2022-10-16T15:20:13;3.00;;;1.47;;
6205;SDS011;3136;48.788;9.772;2022-10-16T15:22:39;2.77;;;1.30;;
6205;SDS011;3136;48.788;9.772;2022-10-16T15:25:10;9.23;;;1.60;;
6205;SDS011;3136;48.788;9.772;2022-10-16T15:28:15;3.10;;;1.40;;
6205;SDS011;3136;48.788;9.772;2022-10-16T15:30:42;4.83;;;1.73;;
6205;SDS011;3136;48.788;9.772;2022-10-16T15:33:13;9.97;;;2.27;;
6205;SDS011;3136;48.788;9.772;2022-10-16T15:35:41;5.43;;;1.67;;
6205;SDS011;3136;48.788;9.772;2022-10-16T15:38:09;3.60;;;1.50;;
6205;SDS011;3136;48.788;9.772;2022-10-16T15:40:37;8.70;;;2.03;;
6205;SDS011;3136;48.788;9.772;2022-10-16T15:43:03;11.40;;;2.10;;
6205;SDS011;3136;48.788;9.772;2022-10-16T15:45:28;9.07;;;2.13;;
6205;SDS011;3136;48.788;9.772;2022-10-16T15:47:54;8.37;;;2.27;;
6205;SDS011;3136;48.788;9.772;2022-10-16T15:50:19;4.50;;;1.60;;
6205;SDS011;3136;48.788;9.772;2022-10-16T15:52:45;6.33;;;1.50;;
6205;SDS011;3136;48.788;9.772;2022-10-16T15:55:11;5.83;;;1.37;;
6205;SDS011;3136;48.788;9.772;2022-10-16T15:57:38;3.83;;;1.60;;
6205;SDS011;3136;48.788;9.772;2022-10-16T16:00:07;5.60;;;1.83;;
6205;SDS011;3136;48.788;9.772;2022-10-16T16:02:38;7.80;;;1.43;;
6205;SDS011;3136;48.788;9.772;2022-10-16T16:05:04;3.47;;;1.47;;
6205;SDS011;3136;48.788;9.772;2022-10-16T16:07:33;7.37;;;1.60;;
6205;SDS011;3136;48.788;9.772;2022-10-16T16:09:59;7.03;;;1.73;;
6205;SDS011;3136;48.788;9.772;2022-10-16T16:12:25;8.87;;;1.60;;
6205;SDS011;3136;48.788;9.772;2022-10-16T16:14:51;6.07;;;2.07;;
6205;SDS011;3136;48.788;9.772;2022-10-16T16:17:17;6.87;;;1.90;;
6205;SDS011;3136;48.788;9.772;2022-10-16T16:19:43;6.37;;;2.17;;
6205;SDS011;3136;48.788;9.772;2022-10-16T16:22:08;6.80;;;1.80;;
6205;SDS011;3136;48.788;9.772;2022-10-16T16:24:34;6.97;;;1.73;;
6205;SDS011;3136;48.788;9.772;2022-10-16T16:26:59;9.20;;;1.87;;
6205;SDS011;3136;48.788;9.772;2022-10-16T16:29:25;8.30;;;1.80;;
6205;SDS011;3136;48.788;9.772;2022-10-16T16:31:50;4.80;;;1.90;;
6205;SDS011;3136;48.788;9.772;2022-10-16T16:34:22;4.37;;;1.60;;
6205;SDS011;3136;48.788;9.772;2022-10-16T16:36:51;8.30;;;2.37;;
6205;SDS011;3136;48.788;9.772;2022-10-16T16:39:17;3.73;;;1.73;;
6205;SDS011;3136;48.788;9.772;2022-10-16T16:41:43;7.47;;;1.87;;
6205;SDS011;3136;48.788;9.772;2022-10-16T16:44:10;8.43;;;1.83;;
6205;SDS011;3136;48.788;9.772;2022-10-16T16:46:38;3.87;;;1.80;;
6205;SDS011;3136;48.788;9.772;2022-10-16T16:49:05;6.93;;;2.20;;
6205;SDS011;3136;48.788;9.772;2022-10-16T16:51:31;4.90;;;2.10;;
6205;SDS011;3136;48.788;9.772;2022-10-16T16:53:57;3.27;;;2.03;;
6205;SDS011;3136;48.788;9.772;2022-10-16T16:56:24;10.03;;;2.97;;
6205;SDS011;3136;48.788;9.772;2022-10-16T16:58:51;6.40;;;3.10;;
6205;SDS011;3136;48.788;9.772;2022-10-16T17:01:18;10.50;;;3.60;;
6205;SDS011;3136;48.788;9.772;2022-10-16T17:03:44;5.20;;;2.80;;
6205;SDS011;3136;48.788;9.772;2022-10-16T17:06:10;6.97;;;2.37;;
6205;SDS011;3136;48.788;9.772;2022-10-16T17:08:37;7.90;;;2.30;;
6205;SDS011;3136;48.788;9.772;2022-10-16T17:11:03;4.30;;;2.57;;
6205;SDS011;3136;48.788;9.772;2022-10-16T17:13:31;10.20;;;2.50;;
6205;SDS011;3136;48.788;9.772;2022-10-16T17:16:02;6.60;;;2.40;;
6205;SDS011;3136;48.788;9.772;2022-10-16T17:18:29;12.93;;;2.97;;